sensor_id;sensor_type;location;lat;lon;timestamp;P1;durP1;ratioP1;P2;durP2;ratioP2
36321;SDS011;23564;48.290;11.460;2022-12-18T00:01:49;81.75;;;25.20;;
36321;SDS011;23564;48.290;11.460;2022-12-18T00:04:15;82.95;;;26.50;;
36321;SDS011;23564;48.290;11.460;2022-12-18T00:06:45;70.68;;;24.63;;
36321;SDS011;23564;48.290;11.460;2022-12-18T00:09:11;74.13;;;23.42;;
36321;SDS011;23564;48.290;11.460;2022-12-18T00:11:36;69.97;;;23.08;;
36321;SDS011;23564;48.290;11.460;2022-12-18T00:14:02;71.22;;;23.23;;
36321;SDS011;23564;48.290;11.460;2022-12-18T00:16:28;71.45;;;24.30;;
36321;SDS011;23564;48.290;11.460;2022-12-18T00:18:59;78.07;;;26.00;;
36321;SDS011;23564;48.290;11.460;2022-12-18T00:21:25;81.43;;;24.65;;
36321;SDS011;23564;48.290;11.460;2022-12-18T00:23:51;79.32;;;25.90;;
36321;SDS011;23564;48.290;11.460;2022-12-18T00:26:18;77.75;;;23.90;;
36321;SDS011;23564;48.290;11.460;2022-12-18T00:28:46;81.32;;;26.15;;
36321;SDS011;23564;48.290;11.460;2022-12-18T00:31:13;70.97;;;24.25;;
36321;SDS011;23564;48.290;11.460;2022-12-18T00:33:40;81.18;;;25.73;;
36321;SDS011;23564;48.290;11.460;2022-12-18T00:36:16;71.05;;;25.83;;
36321;SDS011;23564;48.290;11.460;2022-12-18T00:38:44;71.82;;;26.00;;
36321;SDS011;23564;48.290;11.460;2022-12-18T00:41:11;73.30;;;24.63;;
36321;SDS011;23564;48.290;11.460;2022-12-18T00:43:38;77.22;;;24.58;;
36321;SDS011;23564;48.290;11.460;2022-12-18T00:46:04;77.15;;;24.10;;
36321;SDS011;23564;48.290;11.460;2022-12-18T00:48:30;81.63;;;25.27;;
36321;SDS011;23564;48.290;11.460;2022-12-18T00:50:56;77.05;;;25.40;;
36321;SDS011;23564;48.290;11.460;2022-12-18T00:53:22;77.18;;;25.17;;
36321;SDS011;23564;48.290;11.460;2022-12-18T00:55:47;74.50;;;24.45;;
36321;SDS011;23564;48.290;11.460;2022-12-18T00:58:14;74.85;;;25.88;;
36321;SDS011;23564;48.290;11.460;2022-12-18T01:00:41;70.85;;;26.40;;
36321;SDS011;23564;48.290;11.460;2022-12-18T01:03:07;76.22;;;24.15;;
36321;SDS011;23564;48.290;11.460;2022-12-18T01:05:38;75.22;;;25.50;;
36321;SDS011;23564;48.290;11.460;2022-12-18T01:08:05;84.60;;;25.60;;
36321;SDS011;23564;48.290;11.460;2022-12-18T01:10:31;84.03;;;25.58;;
36321;SDS011;23564;48.290;11.460;2022-12-18T01:12:56;66.07;;;22.20;;
36321;SDS011;23564;48.290;11.460;2022-12-18T01:15:22;61.28;;;21.95;;
36321;SDS011;23564;48.290;11.460;2022-12-18T01:17:47;64.78;;;21.25;;
36321;SDS011;23564;48.290;11.460;2022-12-18T01:20:13;58.90;;;20.83;;
36321;SDS011;23564;48.290;11.460;2022-12-18T01:22:39;70.78;;;21.27;;
36321;SDS011;23564;48.290;11.460;2022-12-18T01:25:04;63.03;;;20.17;;
36321;SDS011;23564;48.290;11.460;2022-12-18T01:27:30;65.75;;;22.00;;
36321;SDS011;23564;48.290;11.460;2022-12-18T01:29:57;72.70;;;23.90;;
36321;SDS011;23564;48.290;11.460;2022-12-18T01:32:23;70.63;;;22.52;;
36321;SDS011;23564;48.290;11.460;2022-12-18T01:34:49;62.40;;;22.20;;
36321;SDS011;23564;48.290;11.460;2022-12-18T01:37:14;68.80;;;23.05;;
36321;SDS011;23564;48.290;11.460;2022-12-18T01:39:40;77.53;;;25.23;;
36321;SDS011;23564;48.290;11.460;2022-12-18T01:42:10;75.50;;;25.80;;
36321;SDS011;23564;48.290;11.460;2022-12-18T01:47:31;71.68;;;22.77;;
36321;SDS011;23564;48.290;11.460;2022-12-18T01:52:56;67.57;;;22.67;;
36321;SDS011;23564;48.290;11.460;2022-12-18T01:55:26;70.25;;;24.38;;
36321;SDS011;23564;48.290;11.460;2022-12-18T01:57:59;66.78;;;23.75;;
36321;SDS011;23564;48.290;11.460;2022-12-18T02:00:26;78.05;;;27.02;;
36321;SDS011;23564;48.290;11.460;2022-12-18T02:02:52;73.85;;;25.55;;
36321;SDS011;23564;48.290;11.460;2022-12-18T02:08:10;68.65;;;22.48;;
36321;SDS011;23564;48.290;11.460;2022-12-18T02:16:12;54.47;;;18.17;;
36321;SDS011;23564;48.290;11.460;2022-12-18T02:18:48;55.90;;;19.02;;
36321;SDS011;23564;48.290;11.460;2022-12-18T02:21:26;52.53;;;19.13;;
36321;SDS011;23564;48.290;11.460;2022-12-18T02:26:41;59.17;;;20.77;;
36321;SDS011;23564;48.290;11.460;2022-12-18T02:29:36;60.05;;;22.13;;
36321;SDS011;23564;48.290;11.460;2022-12-18T02:32:10;60.58;;;20.95;;
36321;SDS011;23564;48.290;11.460;2022-12-18T02:34:40;62.10;;;21.52;;
36321;SDS011;23564;48.290;11.460;2022-12-18T02:37:09;66.32;;;21.30;;
36321;SDS011;23564;48.290;11.460;2022-12-18T02:39:39;64.25;;;22.20;;
36321;SDS011;23564;48.290;11.460;2022-12-18T02:42:07;64.85;;;22.65;;
36321;SDS011;23564;48.290;11.460;2022-12-18T02:44:33;76.88;;;23.52;;
36321;SDS011;23564;48.290;11.460;2022-12-18T02:47:00;77.53;;;23.80;;
36321;SDS011;23564;48.290;11.460;2022-12-18T02:55:07;71.10;;;23.55;;
36321;SDS011;23564;48.290;11.460;2022-12-18T03:00:21;65.50;;;21.13;;
36321;SDS011;23564;48.290;11.460;2022-12-18T03:05:23;66.72;;;23.42;;
36321;SDS011;23564;48.290;11.460;2022-12-18T03:10:37;64.03;;;22.20;;
36321;SDS011;23564;48.290;11.460;2022-12-18T03:13:08;68.78;;;23.17;;
36321;SDS011;23564;48.290;11.460;2022-12-18T03:15:37;76.78;;;24.52;;
36321;SDS011;23564;48.290;11.460;2022-12-18T03:18:46;71.90;;;22.23;;
36321;SDS011;23564;48.290;11.460;2022-12-18T03:21:14;66.88;;;23.80;;
36321;SDS011;23564;48.290;11.460;2022-12-18T03:23:44;67.32;;;22.10;;
36321;SDS011;23564;48.290;11.460;2022-12-18T03:26:15;66.30;;;21.83;;
36321;SDS011;23564;48.290;11.460;2022-12-18T03:28:45;69.63;;;21.60;;
36321;SDS011;23564;48.290;11.460;2022-12-18T03:31:16;63.10;;;20.83;;
36321;SDS011;23564;48.290;11.460;2022-12-18T03:33:51;72.78;;;21.52;;
36321;SDS011;23564;48.290;11.460;2022-12-18T03:36:22;64.75;;;22.42;;
36321;SDS011;23564;48.290;11.460;2022-12-18T03:38:48;65.20;;;19.85;;
36321;SDS011;23564;48.290;11.460;2022-12-18T03:41:31;61.50;;;19.73;;
36321;SDS011;23564;48.290;11.460;2022-12-18T03:44:50;72.30;;;20.58;;
36321;SDS011;23564;48.290;11.460;2022-12-18T03:47:08;67.55;;;21.30;;
36321;SDS011;23564;48.290;11.460;2022-12-18T03:50:12;64.07;;;21.85;;
36321;SDS011;23564;48.290;11.460;2022-12-18T03:52:45;60.45;;;21.10;;
36321;SDS011;23564;48.290;11.460;2022-12-18T03:55:26;69.32;;;21.15;;
36321;SDS011;23564;48.290;11.460;2022-12-18T03:57:54;74.18;;;22.33;;
36321;SDS011;23564;48.290;11.460;2022-12-18T04:00:21;73.40;;;22.05;;
36321;SDS011;23564;48.290;11.460;2022-12-18T04:02:49;64.53;;;20.98;;
36321;SDS011;23564;48.290;11.460;2022-12-18T04:05:18;60.50;;;20.70;;
36321;SDS011;23564;48.290;11.460;2022-12-18T04:07:45;69.53;;;21.60;;
36321;SDS011;23564;48.290;11.460;2022-12-18T04:10:13;64.82;;;21.08;;
36321;SDS011;23564;48.290;11.460;2022-12-18T04:12:40;61.08;;;20.33;;
36321;SDS011;23564;48.290;11.460;2022-12-18T04:15:07;69.63;;;22.15;;
36321;SDS011;23564;48.290;11.460;2022-12-18T04:17:33;65.93;;;21.42;;
36321;SDS011;23564;48.290;11.460;2022-12-18T04:19:59;62.38;;;21.10;;
36321;SDS011;23564;48.290;11.460;2022-12-18T04:22:25;57.08;;;20.75;;
36321;SDS011;23564;48.290;11.460;2022-12-18T04:24:50;56.90;;;19.25;;
36321;SDS011;23564;48.290;11.460;2022-12-18T04:27:16;66.78;;;20.60;;
36321;SDS011;23564;48.290;11.460;2022-12-18T04:29:41;67.90;;;20.80;;
36321;SDS011;23564;48.290;11.460;2022-12-18T04:32:07;59.95;;;18.15;;
36321;SDS011;23564;48.290;11.460;2022-12-18T04:34:33;53.13;;;19.38;;
36321;SDS011;23564;48.290;11.460;2022-12-18T04:36:59;57.15;;;19.73;;
36321;SDS011;23564;48.290;11.460;2022-12-18T04:39:24;64.75;;;20.48;;
36321;SDS011;23564;48.290;11.460;2022-12-18T04:41:50;61.22;;;21.00;;
36321;SDS011;23564;48.290;11.460;2022-12-18T04:44:16;61.40;;;20.23;;
36321;SDS011;23564;48.290;11.460;2022-12-18T04:46:41;53.47;;;19.17;;
36321;SDS011;23564;48.290;11.460;2022-12-18T04:49:07;61.72;;;18.70;;
36321;SDS011;23564;48.290;11.460;2022-12-18T04:51:32;62.85;;;19.20;;
36321;SDS011;23564;48.290;11.460;2022-12-18T04:53:58;54.75;;;19.08;;
36321;SDS011;23564;48.290;11.460;2022-12-18T04:56:23;53.17;;;19.35;;
36321;SDS011;23564;48.290;11.460;2022-12-18T04:58:49;55.92;;;19.33;;
36321;SDS011;23564;48.290;11.460;2022-12-18T05:01:15;57.70;;;19.20;;
36321;SDS011;23564;48.290;11.460;2022-12-18T05:03:42;57.97;;;19.95;;
36321;SDS011;23564;48.290;11.460;2022-12-18T05:06:08;50.42;;;18.42;;
36321;SDS011;23564;48.290;11.460;2022-12-18T05:08:34;56.80;;;18.92;;
36321;SDS011;23564;48.290;11.460;2022-12-18T05:13:27;53.92;;;18.65;;
36321;SDS011;23564;48.290;11.460;2022-12-18T05:15:53;55.53;;;19.17;;
36321;SDS011;23564;48.290;11.460;2022-12-18T05:18:20;56.40;;;18.33;;
36321;SDS011;23564;48.290;11.460;2022-12-18T05:20:46;56.72;;;18.80;;
36321;SDS011;23564;48.290;11.460;2022-12-18T05:23:12;58.78;;;18.52;;
36321;SDS011;23564;48.290;11.460;2022-12-18T05:25:37;60.17;;;18.40;;
36321;SDS011;23564;48.290;11.460;2022-12-18T05:28:03;50.40;;;16.83;;
36321;SDS011;23564;48.290;11.460;2022-12-18T05:30:29;52.22;;;17.55;;
36321;SDS011;23564;48.290;11.460;2022-12-18T05:32:54;54.80;;;18.58;;
36321;SDS011;23564;48.290;11.460;2022-12-18T05:35:20;63.15;;;20.33;;
36321;SDS011;23564;48.290;11.460;2022-12-18T05:37:45;57.83;;;17.90;;
36321;SDS011;23564;48.290;11.460;2022-12-18T05:40:11;54.92;;;17.45;;
36321;SDS011;23564;48.290;11.460;2022-12-18T05:42:37;60.22;;;19.08;;
36321;SDS011;23564;48.290;11.460;2022-12-18T05:45:03;53.22;;;18.60;;
36321;SDS011;23564;48.290;11.460;2022-12-18T05:47:29;51.38;;;18.40;;
36321;SDS011;23564;48.290;11.460;2022-12-18T05:49:54;54.70;;;18.63;;
36321;SDS011;23564;48.290;11.460;2022-12-18T05:52:20;56.28;;;18.35;;
36321;SDS011;23564;48.290;11.460;2022-12-18T05:54:46;55.60;;;18.55;;
36321;SDS011;23564;48.290;11.460;2022-12-18T05:57:11;55.30;;;16.98;;
36321;SDS011;23564;48.290;11.460;2022-12-18T05:59:37;64.35;;;20.10;;
36321;SDS011;23564;48.290;11.460;2022-12-18T06:02:02;53.55;;;18.45;;
36321;SDS011;23564;48.290;11.460;2022-12-18T06:04:28;50.17;;;17.35;;
36321;SDS011;23564;48.290;11.460;2022-12-18T06:06:55;60.97;;;18.83;;
36321;SDS011;23564;48.290;11.460;2022-12-18T06:09:21;52.83;;;17.05;;
36321;SDS011;23564;48.290;11.460;2022-12-18T06:11:46;54.47;;;18.38;;
36321;SDS011;23564;48.290;11.460;2022-12-18T06:14:12;54.08;;;18.10;;
36321;SDS011;23564;48.290;11.460;2022-12-18T06:16:37;49.38;;;17.63;;
36321;SDS011;23564;48.290;11.460;2022-12-18T06:19:04;55.35;;;18.85;;
36321;SDS011;23564;48.290;11.460;2022-12-18T06:21:30;47.20;;;17.63;;
36321;SDS011;23564;48.290;11.460;2022-12-18T06:23:57;54.50;;;18.20;;
36321;SDS011;23564;48.290;11.460;2022-12-18T06:26:23;53.47;;;17.38;;
36321;SDS011;23564;48.290;11.460;2022-12-18T06:28:48;50.53;;;17.60;;
36321;SDS011;23564;48.290;11.460;2022-12-18T06:31:14;50.25;;;16.85;;
36321;SDS011;23564;48.290;11.460;2022-12-18T06:33:40;53.47;;;18.25;;
36321;SDS011;23564;48.290;11.460;2022-12-18T06:36:06;51.20;;;16.75;;
36321;SDS011;23564;48.290;11.460;2022-12-18T06:38:34;55.15;;;17.20;;
36321;SDS011;23564;48.290;11.460;2022-12-18T06:41:08;56.78;;;19.52;;
36321;SDS011;23564;48.290;11.460;2022-12-18T06:43:35;51.60;;;16.20;;
36321;SDS011;23564;48.290;11.460;2022-12-18T06:46:01;46.45;;;16.55;;
36321;SDS011;23564;48.290;11.460;2022-12-18T06:48:28;44.90;;;15.85;;
36321;SDS011;23564;48.290;11.460;2022-12-18T06:50:53;52.35;;;15.85;;
36321;SDS011;23564;48.290;11.460;2022-12-18T06:53:19;51.45;;;17.23;;
36321;SDS011;23564;48.290;11.460;2022-12-18T06:55:45;54.33;;;17.67;;
36321;SDS011;23564;48.290;11.460;2022-12-18T06:58:11;48.13;;;17.65;;
36321;SDS011;23564;48.290;11.460;2022-12-18T07:00:36;50.20;;;18.20;;
36321;SDS011;23564;48.290;11.460;2022-12-18T07:03:02;50.92;;;17.67;;
36321;SDS011;23564;48.290;11.460;2022-12-18T07:05:27;54.33;;;17.35;;
36321;SDS011;23564;48.290;11.460;2022-12-18T07:07:53;52.58;;;17.63;;
36321;SDS011;23564;48.290;11.460;2022-12-18T07:10:18;48.58;;;16.98;;
36321;SDS011;23564;48.290;11.460;2022-12-18T07:12:44;53.25;;;17.80;;
36321;SDS011;23564;48.290;11.460;2022-12-18T07:15:10;50.33;;;16.55;;
36321;SDS011;23564;48.290;11.460;2022-12-18T07:17:36;51.17;;;18.15;;
36321;SDS011;23564;48.290;11.460;2022-12-18T07:20:01;55.60;;;17.67;;
36321;SDS011;23564;48.290;11.460;2022-12-18T07:22:27;51.90;;;17.45;;
36321;SDS011;23564;48.290;11.460;2022-12-18T07:24:53;49.80;;;16.83;;
36321;SDS011;23564;48.290;11.460;2022-12-18T07:27:18;42.85;;;15.60;;
36321;SDS011;23564;48.290;11.460;2022-12-18T07:29:44;55.22;;;17.23;;
36321;SDS011;23564;48.290;11.460;2022-12-18T07:32:09;48.75;;;16.55;;
36321;SDS011;23564;48.290;11.460;2022-12-18T07:34:35;51.53;;;17.20;;
36321;SDS011;23564;48.290;11.460;2022-12-18T07:37:01;52.42;;;17.83;;
36321;SDS011;23564;48.290;11.460;2022-12-18T07:39:26;51.92;;;16.90;;
36321;SDS011;23564;48.290;11.460;2022-12-18T07:41:52;47.28;;;17.73;;
36321;SDS011;23564;48.290;11.460;2022-12-18T07:44:36;48.45;;;16.58;;
36321;SDS011;23564;48.290;11.460;2022-12-18T07:47:02;46.28;;;15.65;;
36321;SDS011;23564;48.290;11.460;2022-12-18T07:49:28;51.08;;;17.05;;
36321;SDS011;23564;48.290;11.460;2022-12-18T07:51:57;48.53;;;16.23;;
36321;SDS011;23564;48.290;11.460;2022-12-18T07:54:23;51.80;;;17.38;;
36321;SDS011;23564;48.290;11.460;2022-12-18T07:56:49;57.10;;;17.23;;
36321;SDS011;23564;48.290;11.460;2022-12-18T07:59:16;57.38;;;20.25;;
36321;SDS011;23564;48.290;11.460;2022-12-18T08:01:41;52.63;;;17.48;;
36321;SDS011;23564;48.290;11.460;2022-12-18T08:04:07;58.25;;;18.65;;
36321;SDS011;23564;48.290;11.460;2022-12-18T08:06:32;49.20;;;17.13;;
36321;SDS011;23564;48.290;11.460;2022-12-18T08:08:58;51.40;;;17.13;;
36321;SDS011;23564;48.290;11.460;2022-12-18T08:11:25;51.22;;;17.63;;
36321;SDS011;23564;48.290;11.460;2022-12-18T08:13:52;50.03;;;17.70;;
36321;SDS011;23564;48.290;11.460;2022-12-18T08:16:18;51.22;;;18.13;;
36321;SDS011;23564;48.290;11.460;2022-12-18T08:18:44;48.90;;;17.15;;
36321;SDS011;23564;48.290;11.460;2022-12-18T08:21:14;55.50;;;17.08;;
36321;SDS011;23564;48.290;11.460;2022-12-18T08:23:45;52.88;;;16.92;;
36321;SDS011;23564;48.290;11.460;2022-12-18T08:26:12;49.15;;;17.27;;
36321;SDS011;23564;48.290;11.460;2022-12-18T08:28:38;55.17;;;17.90;;
36321;SDS011;23564;48.290;11.460;2022-12-18T08:31:04;51.08;;;15.93;;
36321;SDS011;23564;48.290;11.460;2022-12-18T08:33:30;39.58;;;14.60;;
36321;SDS011;23564;48.290;11.460;2022-12-18T08:35:57;40.65;;;14.68;;
36321;SDS011;23564;48.290;11.460;2022-12-18T08:38:23;47.40;;;15.80;;
36321;SDS011;23564;48.290;11.460;2022-12-18T08:40:49;52.92;;;15.85;;
36321;SDS011;23564;48.290;11.460;2022-12-18T08:43:14;49.03;;;15.35;;
36321;SDS011;23564;48.290;11.460;2022-12-18T08:45:58;45.45;;;15.80;;
36321;SDS011;23564;48.290;11.460;2022-12-18T08:48:24;53.53;;;15.93;;
36321;SDS011;23564;48.290;11.460;2022-12-18T08:50:53;40.65;;;15.35;;
36321;SDS011;23564;48.290;11.460;2022-12-18T08:53:20;42.92;;;16.13;;
36321;SDS011;23564;48.290;11.460;2022-12-18T08:55:45;48.28;;;15.60;;
36321;SDS011;23564;48.290;11.460;2022-12-18T08:58:11;43.33;;;14.52;;
36321;SDS011;23564;48.290;11.460;2022-12-18T09:00:36;44.67;;;16.83;;
36321;SDS011;23564;48.290;11.460;2022-12-18T09:03:02;46.63;;;16.38;;
36321;SDS011;23564;48.290;11.460;2022-12-18T09:05:27;41.33;;;14.38;;
36321;SDS011;23564;48.290;11.460;2022-12-18T09:07:53;42.53;;;15.50;;
36321;SDS011;23564;48.290;11.460;2022-12-18T09:10:18;41.50;;;15.07;;
36321;SDS011;23564;48.290;11.460;2022-12-18T09:12:44;50.28;;;19.23;;
36321;SDS011;23564;48.290;11.460;2022-12-18T09:15:09;47.72;;;15.52;;
36321;SDS011;23564;48.290;11.460;2022-12-18T09:17:35;45.00;;;15.80;;
36321;SDS011;23564;48.290;11.460;2022-12-18T09:20:01;44.38;;;15.82;;
36321;SDS011;23564;48.290;11.460;2022-12-18T09:22:26;48.63;;;16.85;;
36321;SDS011;23564;48.290;11.460;2022-12-18T09:24:52;56.28;;;20.45;;
36321;SDS011;23564;48.290;11.460;2022-12-18T09:27:17;52.85;;;19.77;;
36321;SDS011;23564;48.290;11.460;2022-12-18T09:29:43;58.92;;;21.77;;
36321;SDS011;23564;48.290;11.460;2022-12-18T09:32:09;51.22;;;18.77;;
36321;SDS011;23564;48.290;11.460;2022-12-18T09:34:34;48.05;;;20.45;;
36321;SDS011;23564;48.290;11.460;2022-12-18T09:37:00;44.42;;;18.13;;
36321;SDS011;23564;48.290;11.460;2022-12-18T09:39:25;46.13;;;17.50;;
36321;SDS011;23564;48.290;11.460;2022-12-18T09:41:52;79.68;;;32.42;;
36321;SDS011;23564;48.290;11.460;2022-12-18T09:49:25;50.85;;;18.77;;
36321;SDS011;23564;48.290;11.460;2022-12-18T09:52:02;40.42;;;15.57;;
36321;SDS011;23564;48.290;11.460;2022-12-18T09:54:38;36.30;;;13.70;;
36321;SDS011;23564;48.290;11.460;2022-12-18T09:57:05;37.85;;;13.80;;
36321;SDS011;23564;48.290;11.460;2022-12-18T09:59:35;38.85;;;15.00;;
36321;SDS011;23564;48.290;11.460;2022-12-18T10:02:13;47.38;;;18.33;;
36321;SDS011;23564;48.290;11.460;2022-12-18T10:04:55;52.58;;;20.05;;
36321;SDS011;23564;48.290;11.460;2022-12-18T10:07:40;39.22;;;15.82;;
36321;SDS011;23564;48.290;11.460;2022-12-18T10:10:27;41.33;;;16.05;;
36321;SDS011;23564;48.290;11.460;2022-12-18T10:15:41;37.67;;;13.48;;
36321;SDS011;23564;48.290;11.460;2022-12-18T10:21:41;34.33;;;13.97;;
36321;SDS011;23564;48.290;11.460;2022-12-18T10:26:38;38.47;;;14.52;;
36321;SDS011;23564;48.290;11.460;2022-12-18T10:29:09;30.77;;;12.95;;
36321;SDS011;23564;48.290;11.460;2022-12-18T10:31:36;28.55;;;11.50;;
36321;SDS011;23564;48.290;11.460;2022-12-18T10:34:02;35.53;;;12.85;;
36321;SDS011;23564;48.290;11.460;2022-12-18T10:36:27;37.40;;;14.02;;
36321;SDS011;23564;48.290;11.460;2022-12-18T10:38:54;37.70;;;14.43;;
36321;SDS011;23564;48.290;11.460;2022-12-18T10:41:40;45.30;;;15.63;;
36321;SDS011;23564;48.290;11.460;2022-12-18T10:44:24;40.97;;;15.25;;
36321;SDS011;23564;48.290;11.460;2022-12-18T10:46:53;43.88;;;16.27;;
36321;SDS011;23564;48.290;11.460;2022-12-18T10:49:29;41.22;;;16.42;;
36321;SDS011;23564;48.290;11.460;2022-12-18T10:54:52;36.60;;;15.45;;
36321;SDS011;23564;48.290;11.460;2022-12-18T10:59:58;43.65;;;15.38;;
36321;SDS011;23564;48.290;11.460;2022-12-18T11:02:36;40.08;;;15.38;;
36321;SDS011;23564;48.290;11.460;2022-12-18T11:05:03;45.20;;;15.20;;
36321;SDS011;23564;48.290;11.460;2022-12-18T11:07:48;42.97;;;16.08;;
36321;SDS011;23564;48.290;11.460;2022-12-18T11:10:16;43.72;;;15.82;;
36321;SDS011;23564;48.290;11.460;2022-12-18T11:12:43;40.95;;;16.00;;
36321;SDS011;23564;48.290;11.460;2022-12-18T11:15:20;44.47;;;14.63;;
36321;SDS011;23564;48.290;11.460;2022-12-18T11:17:52;43.83;;;16.50;;
36321;SDS011;23564;48.290;11.460;2022-12-18T11:20:23;39.90;;;13.63;;
36321;SDS011;23564;48.290;11.460;2022-12-18T11:22:56;35.47;;;13.73;;
36321;SDS011;23564;48.290;11.460;2022-12-18T11:25:27;40.08;;;14.68;;
36321;SDS011;23564;48.290;11.460;2022-12-18T11:28:00;38.20;;;14.45;;
36321;SDS011;23564;48.290;11.460;2022-12-18T11:30:30;35.95;;;13.82;;
36321;SDS011;23564;48.290;11.460;2022-12-18T11:33:10;37.03;;;14.52;;
36321;SDS011;23564;48.290;11.460;2022-12-18T11:35:42;32.92;;;12.73;;
36321;SDS011;23564;48.290;11.460;2022-12-18T11:38:18;37.60;;;14.43;;
36321;SDS011;23564;48.290;11.460;2022-12-18T11:40:56;33.53;;;13.00;;
36321;SDS011;23564;48.290;11.460;2022-12-18T11:43:42;38.25;;;14.88;;
36321;SDS011;23564;48.290;11.460;2022-12-18T11:46:26;38.63;;;14.02;;
36321;SDS011;23564;48.290;11.460;2022-12-18T11:49:00;41.45;;;14.18;;
36321;SDS011;23564;48.290;11.460;2022-12-18T11:51:38;39.88;;;16.02;;
36321;SDS011;23564;48.290;11.460;2022-12-18T11:54:14;38.08;;;13.48;;
36321;SDS011;23564;48.290;11.460;2022-12-18T11:56:51;39.90;;;13.35;;
36321;SDS011;23564;48.290;11.460;2022-12-18T12:02:14;42.88;;;14.68;;
36321;SDS011;23564;48.290;11.460;2022-12-18T12:10:35;32.13;;;13.13;;
36321;SDS011;23564;48.290;11.460;2022-12-18T12:18:40;38.30;;;14.77;;
36321;SDS011;23564;48.290;11.460;2022-12-18T12:21:26;35.47;;;13.40;;
36321;SDS011;23564;48.290;11.460;2022-12-18T12:40:29;36.42;;;13.88;;
36321;SDS011;23564;48.290;11.460;2022-12-18T12:43:03;38.93;;;14.83;;
36321;SDS011;23564;48.290;11.460;2022-12-18T12:45:41;35.50;;;12.63;;
36321;SDS011;23564;48.290;11.460;2022-12-18T12:48:13;36.28;;;13.63;;
36321;SDS011;23564;48.290;11.460;2022-12-18T12:50:49;36.75;;;14.05;;
36321;SDS011;23564;48.290;11.460;2022-12-18T12:53:32;36.65;;;13.07;;
36321;SDS011;23564;48.290;11.460;2022-12-18T12:56:02;33.47;;;12.93;;
36321;SDS011;23564;48.290;11.460;2022-12-18T12:58:51;35.13;;;13.25;;
36321;SDS011;23564;48.290;11.460;2022-12-18T13:01:42;38.00;;;13.50;;
36321;SDS011;23564;48.290;11.460;2022-12-18T13:07:01;47.25;;;16.30;;
36321;SDS011;23564;48.290;11.460;2022-12-18T13:12:58;38.85;;;14.70;;
36321;SDS011;23564;48.290;11.460;2022-12-18T13:23:01;41.30;;;14.75;;
36321;SDS011;23564;48.290;11.460;2022-12-18T13:25:44;39.17;;;14.77;;
36321;SDS011;23564;48.290;11.460;2022-12-18T13:28:12;37.15;;;13.45;;
36321;SDS011;23564;48.290;11.460;2022-12-18T13:30:48;37.38;;;13.27;;
36321;SDS011;23564;48.290;11.460;2022-12-18T13:40:58;35.33;;;13.30;;
36321;SDS011;23564;48.290;11.460;2022-12-18T13:46:05;32.63;;;12.82;;
36321;SDS011;23564;48.290;11.460;2022-12-18T13:51:42;40.03;;;14.18;;
36321;SDS011;23564;48.290;11.460;2022-12-18T13:54:19;42.00;;;13.90;;
36321;SDS011;23564;48.290;11.460;2022-12-18T13:57:02;40.28;;;14.95;;
36321;SDS011;23564;48.290;11.460;2022-12-18T13:59:38;41.97;;;15.07;;
36321;SDS011;23564;48.290;11.460;2022-12-18T14:04:44;38.47;;;15.45;;
36321;SDS011;23564;48.290;11.460;2022-12-18T14:07:12;38.38;;;14.95;;
36321;SDS011;23564;48.290;11.460;2022-12-18T14:09:42;37.30;;;14.30;;
36321;SDS011;23564;48.290;11.460;2022-12-18T14:12:18;36.55;;;15.55;;
36321;SDS011;23564;48.290;11.460;2022-12-18T14:15:16;43.00;;;15.73;;
36321;SDS011;23564;48.290;11.460;2022-12-18T14:20:49;40.88;;;15.38;;
36321;SDS011;23564;48.290;11.460;2022-12-18T14:26:01;43.38;;;15.23;;
36321;SDS011;23564;48.290;11.460;2022-12-18T14:28:28;40.17;;;15.57;;
36321;SDS011;23564;48.290;11.460;2022-12-18T14:30:54;47.40;;;15.60;;
36321;SDS011;23564;48.290;11.460;2022-12-18T14:33:22;48.17;;;16.35;;
36321;SDS011;23564;48.290;11.460;2022-12-18T14:36:00;41.58;;;16.08;;
36321;SDS011;23564;48.290;11.460;2022-12-18T14:38:29;35.42;;;13.73;;
36321;SDS011;23564;48.290;11.460;2022-12-18T14:41:02;44.63;;;16.20;;
36321;SDS011;23564;48.290;11.460;2022-12-18T14:43:31;48.05;;;15.63;;
36321;SDS011;23564;48.290;11.460;2022-12-18T14:45:58;42.25;;;16.10;;
36321;SDS011;23564;48.290;11.460;2022-12-18T14:48:31;46.22;;;17.88;;
36321;SDS011;23564;48.290;11.460;2022-12-18T14:51:04;49.83;;;17.55;;
36321;SDS011;23564;48.290;11.460;2022-12-18T14:53:41;50.22;;;17.35;;
36321;SDS011;23564;48.290;11.460;2022-12-18T14:56:20;48.47;;;17.05;;
36321;SDS011;23564;48.290;11.460;2022-12-18T14:59:00;49.88;;;17.35;;
36321;SDS011;23564;48.290;11.460;2022-12-18T15:01:29;46.60;;;16.35;;
36321;SDS011;23564;48.290;11.460;2022-12-18T15:04:03;47.53;;;16.40;;
36321;SDS011;23564;48.290;11.460;2022-12-18T15:06:34;41.78;;;16.08;;
36321;SDS011;23564;48.290;11.460;2022-12-18T15:09:23;47.92;;;17.25;;
36321;SDS011;23564;48.290;11.460;2022-12-18T15:11:49;48.65;;;17.75;;
36321;SDS011;23564;48.290;11.460;2022-12-18T15:17:17;43.92;;;17.25;;
36321;SDS011;23564;48.290;11.460;2022-12-18T15:19:44;44.25;;;16.00;;
36321;SDS011;23564;48.290;11.460;2022-12-18T15:22:19;45.03;;;15.35;;
36321;SDS011;23564;48.290;11.460;2022-12-18T15:24:48;50.60;;;17.20;;
36321;SDS011;23564;48.290;11.460;2022-12-18T15:27:21;45.67;;;17.13;;
36321;SDS011;23564;48.290;11.460;2022-12-18T15:30:26;50.40;;;17.65;;
36321;SDS011;23564;48.290;11.460;2022-12-18T15:32:46;51.10;;;17.63;;
36321;SDS011;23564;48.290;11.460;2022-12-18T15:35:20;48.08;;;18.48;;
36321;SDS011;23564;48.290;11.460;2022-12-18T15:37:47;51.97;;;20.33;;
36321;SDS011;23564;48.290;11.460;2022-12-18T15:40:15;49.97;;;18.58;;
36321;SDS011;23564;48.290;11.460;2022-12-18T15:42:42;52.47;;;17.98;;
36321;SDS011;23564;48.290;11.460;2022-12-18T15:45:27;53.70;;;19.10;;
36321;SDS011;23564;48.290;11.460;2022-12-18T15:47:52;46.38;;;18.38;;
36321;SDS011;23564;48.290;11.460;2022-12-18T15:50:18;64.45;;;23.23;;
36321;SDS011;23564;48.290;11.460;2022-12-18T15:52:45;50.20;;;18.45;;
36321;SDS011;23564;48.290;11.460;2022-12-18T15:55:15;54.17;;;18.20;;
36321;SDS011;23564;48.290;11.460;2022-12-18T15:58:01;51.42;;;18.15;;
36321;SDS011;23564;48.290;11.460;2022-12-18T16:00:27;49.83;;;19.60;;
36321;SDS011;23564;48.290;11.460;2022-12-18T16:02:52;59.95;;;23.42;;
36321;SDS011;23564;48.290;11.460;2022-12-18T16:05:24;47.20;;;19.38;;
36321;SDS011;23564;48.290;11.460;2022-12-18T16:07:50;97.75;;;31.00;;
36321;SDS011;23564;48.290;11.460;2022-12-18T16:10:16;81.85;;;31.27;;
36321;SDS011;23564;48.290;11.460;2022-12-18T16:12:42;46.08;;;16.80;;
36321;SDS011;23564;48.290;11.460;2022-12-18T16:15:08;47.35;;;16.70;;
36321;SDS011;23564;48.290;11.460;2022-12-18T16:17:38;49.75;;;15.60;;
36321;SDS011;23564;48.290;11.460;2022-12-18T16:20:04;40.80;;;16.38;;
36321;SDS011;23564;48.290;11.460;2022-12-18T16:22:31;48.85;;;16.08;;
36321;SDS011;23564;48.290;11.460;2022-12-18T16:24:56;47.53;;;18.42;;